Flight Track Log - Related Links

Times and Time Zones

All times are in EDT time to prevent confusion due to time zone crossing. See the LT912 flight status page for this flight to view local times or setup timezone preferences in your user account.


Time Position Orientation Groundspeed Altitude Reporting Facility
EDT Latitude Longitude Course Direction KTS MPH feet Rate Location/Type
Thu 05:51:46 PM 58.5833 -111.0500 183° South 170 196 10,400  Level Edmonton Center
Thu 05:52:46 PM 58.5333 -111.0833 199° South 170 196 12,300 1,850 Climbing Edmonton Center
Thu 05:53:46 PM 58.4667 -111.0667 173° South 180 207 14,100 1,850 Climbing Edmonton Center
Thu 05:54:00 PM 58.3399 -111.1333 180° South  Level FlightAware Approximate
Thu 05:54:46 PM 58.4167 -111.0500 170° South 190 219 16,000  Level Edmonton Center
Thu 05:55:00 PM 58.2789 -111.1333 180° South  Level FlightAware Approximate
Thu 05:55:46 PM 58.3667 -111.0833 199° South 200 230 16,900  Level Edmonton Center
Thu 05:56:00 PM 58.2178 -111.1333 180° South  Level FlightAware Approximate
Thu 05:56:46 PM 58.3000 -111.0667 173° South 240 276 16,900  Level Edmonton Center
Thu 05:57:00 PM 58.1569 -111.1373 183° South  Level FlightAware Approximate
Thu 05:57:46 PM 58.2167 -111.0833 186° South 260 299 16,900  Level Edmonton Center
Thu 05:58:46 PM 58.1500 -111.0833 180° South 270 311 17,000 50 Climbing Edmonton Center
Thu 05:59:46 PM 58.0833 -111.1000 188° South 270 311 17,000  Level Edmonton Center
Thu 06:00:46 PM 58.0000 -111.0833 174° South 270 311 17,000  Level Edmonton Center
Thu 06:01:46 PM 57.9333 -111.1000 188° South 270 311 17,000  Level Edmonton Center
Thu 06:02:46 PM 57.8500 -111.0833 174° South 270 311 17,000  Level Edmonton Center
Thu 06:03:46 PM 57.7667 -111.1000 186° South 260 299 17,000  Level Edmonton Center
Thu 06:04:46 PM 57.7000 -111.1000 180° South 260 299 17,000  Level Edmonton Center
Thu 06:05:46 PM 57.6167 -111.1167 186° South 260 299 17,000  Level Edmonton Center
Thu 06:06:46 PM 57.5500 -111.1000 172° South 260 299 17,000 -200 Level Edmonton Center
Thu 06:07:46 PM 57.4833 -111.1167 188° South 260 299 16,600 -950 Descending Edmonton Center
Thu 06:08:46 PM 57.4000 -111.1000 174° South 280 322 15,100 -1,750 Descending Edmonton Center
Thu 06:09:46 PM 57.3167 -111.1000 180° South 290 334 13,100 -1,850 Descending Edmonton Center
Thu 06:10:46 PM 57.2333 -111.1167 186° South 290 334 11,400 -1,700 Descending Edmonton Center
Thu 06:11:46 PM 57.1667 -111.1000 172° South 280 322 9,700 -1,650 Descending Edmonton Center
Thu 06:12:46 PM 57.0833 -111.1167 186° South 260 299 8,100 -1,500 Descending Edmonton Center
Thu 06:13:46 PM 57.0000 -111.1000 174° South 250 288 6,700 -1,300 Descending Edmonton Center
Thu 06:14:46 PM 56.9333 -111.1167 188° South 240 276 5,500 -1,150 Descending Edmonton Center
Thu 06:15:46 PM 56.8833 -111.1167 180° South 230 265 4,400 -1,100 Descending Edmonton Center
Thu 06:16:46 PM 56.8167 -111.1000 172° South 230 265 3,300 -850 Descending Edmonton Center
Thu 06:17:46 PM 56.7500 -111.1167 188° South 210 242 2,700 -450 Descending Edmonton Center
Thu 06:18:46 PM 56.7000 -111.1500 200° South 190 219 2,400 -250 Descending Edmonton Center
Thu 06:19:46 PM 56.6500 -111.1333 170° South 180 207 2,200 -400 Descending Edmonton Center
Thu 06:20:46 PM 56.6333 -111.2000 246° West 150 173 1,600 -500 Descending Edmonton Center
Thu 06:21:46 PM 56.6333 -111.2500 270° West 110 127 1,200 -200 Descending Edmonton Center
Thu 06:22:46 PM 56.6500 -111.2667 331° Northwest 80 92 1,200  Level Edmonton Center

Login

Don't have an account? Register now (free) for customized features, flight alerts, and more!